Time;durP1;ratioP1;P1;durP2;ratioP2;P2;SDS_P1;SDS_P2;PMS_P1;PMS_P2;Temp;Humidity;BMP_temperature;BMP_pressure;BME280_temperature;BME280_humidity;BME280_pressure;Samples;Min_cycle;Max_cycle;Signal;HPM_P1;HPM_P2
2021/09/06 00:00:27;;;;;;;7.57;6.63;;;;;;;14.01;100.00;98670.31;5052914;28;20216;-64
2021/09/06 00:02:54;;;;;;;7.47;6.73;;;;;;;14.01;100.00;98672.13;5054978;28;20231;-64
2021/09/06 00:05:21;;;;;;;15.70;7.43;;;;;;;13.98;100.00;98677.63;5056942;28;20203;-64
2021/09/06 00:07:48;;;;;;;8.20;7.40;;;;;;;13.96;100.00;98679.56;5056850;28;20592;-64
2021/09/06 00:10:30;;;;;;;8.47;7.13;;;;;;;13.92;100.00;98667.47;5054845;28;20921;-64
2021/09/06 00:12:58;;;;;;;8.97;7.17;;;;;;;13.89;100.00;98662.38;5056538;28;20220;-64
2021/09/06 00:15:25;;;;;;;8.90;7.13;;;;;;;13.81;100.00;98660.28;5056616;28;20212;-64
2021/09/06 00:17:51;;;;;;;8.70;7.40;;;;;;;13.80;100.00;98663.06;5056487;28;20204;-64
2021/09/06 00:20:18;;;;;;;8.57;7.40;;;;;;;13.76;100.00;98662.44;5056606;28;20208;-64
2021/09/06 00:22:44;;;;;;;7.90;7.10;;;;;;;13.71;100.00;98664.59;5056143;28;20238;-64
2021/09/06 00:25:11;;;;;;;8.10;7.30;;;;;;;13.66;100.00;98660.56;5056467;28;20212;-64
2021/09/06 00:27:37;;;;;;;10.20;7.07;;;;;;;13.58;100.00;98662.94;5056392;28;20216;-64
2021/09/06 00:30:06;;;;;;;9.17;7.47;;;;;;;13.55;100.00;98669.31;5056045;28;20208;-64
2021/09/06 00:32:33;;;;;;;7.77;6.93;;;;;;;13.48;100.00;98672.53;5056341;28;20215;-64
2021/09/06 00:34:59;;;;;;;8.27;7.00;;;;;;;13.45;100.00;98667.47;5056116;28;20211;-64
2021/09/06 00:37:26;;;;;;;7.93;7.13;;;;;;;13.47;100.00;98673.50;5054589;28;20212;-64
2021/09/06 00:39:52;;;;;;;8.50;7.40;;;;;;;13.45;100.00;98670.13;5055933;28;20220;-64
2021/09/06 00:42:19;;;;;;;8.23;7.13;;;;;;;13.44;100.00;98671.91;5056198;28;20287;-64
2021/09/06 00:44:45;;;;;;;8.67;7.77;;;;;;;13.41;100.00;98665.97;5056083;28;20235;-64
2021/09/06 00:47:13;;;;;;;8.17;7.30;;;;;;;13.35;100.00;98658.44;5056145;28;20212;-65
2021/09/06 00:49:39;;;;;;;8.53;7.73;;;;;;;13.34;100.00;98664.72;5056042;28;20222;-64
2021/09/06 00:52:07;;;;;;;10.23;7.53;;;;;;;13.29;100.00;98658.88;5055995;28;20219;-63
2021/09/06 00:54:34;;;;;;;8.40;7.37;;;;;;;13.27;100.00;98663.47;5055775;28;20211;-64
2021/09/06 00:57:00;;;;;;;8.80;7.10;;;;;;;13.22;100.00;98658.50;5056070;28;20215;-64
2021/09/06 00:59:27;;;;;;;7.80;7.00;;;;;;;13.17;100.00;98657.09;5054964;28;20216;-64
2021/09/06 01:01:53;;;;;;;8.87;7.90;;;;;;;13.10;100.00;98662.03;5041635;28;20220;-64
2021/09/06 01:04:22;;;;;;;9.23;7.60;;;;;;;13.07;100.00;98661.41;5050162;28;20235;-64
2021/09/06 01:06:48;;;;;;;8.87;7.30;;;;;;;13.08;100.00;98663.91;5041563;28;20215;-64
2021/09/06 01:09:15;;;;;;;9.17;7.43;;;;;;;13.07;100.00;98666.69;5045793;28;20215;-64
2021/09/06 01:11:41;;;;;;;8.70;7.47;;;;;;;13.04;100.00;98664.25;5049015;28;20208;-64
2021/09/06 01:14:08;;;;;;;8.47;7.57;;;;;;;13.04;100.00;98670.41;5055079;28;20215;-64
2021/09/06 01:16:35;;;;;;;7.90;7.10;;;;;;;13.02;100.00;98666.16;5055488;28;20219;-64
2021/09/06 01:19:01;;;;;;;9.63;7.80;;;;;;;12.99;100.00;98669.03;5055426;28;20251;-64
2021/09/06 01:21:29;;;;;;;10.23;8.17;;;;;;;12.96;100.00;98674.56;5055471;28;20208;-63
2021/09/06 01:23:55;;;;;;;9.70;8.33;;;;;;;12.93;100.00;98680.03;5054946;28;20242;-63
2021/09/06 01:26:23;;;;;;;11.87;8.60;;;;;;;13.00;100.00;98683.97;5055102;28;20212;-63
2021/09/06 01:28:49;;;;;;;9.07;7.80;;;;;;;12.96;100.00;98685.19;5053590;28;20755;-63
2021/09/06 01:31:16;;;;;;;10.10;8.17;;;;;;;12.91;100.00;98681.94;5055190;28;20204;-63
2021/09/06 01:33:42;;;;;;;8.77;7.87;;;;;;;12.85;100.00;98687.69;5055009;28;20219;-63
2021/09/06 01:36:09;;;;;;;9.80;8.60;;;;;;;12.83;100.00;98679.00;5055260;28;20211;-63
2021/09/06 01:38:35;;;;;;;9.70;8.53;;;;;;;12.83;100.00;98681.66;5055102;28;20218;-63
2021/09/06 01:41:02;;;;;;;9.90;8.57;;;;;;;12.76;100.00;98685.66;5054583;28;20239;-63
2021/09/06 01:43:30;;;;;;;10.47;8.03;;;;;;;12.76;100.00;98675.91;5054972;28;20302;-64
2021/09/06 01:45:56;;;;;;;10.13;8.73;;;;;;;12.75;100.00;98686.63;5054969;28;20220;-63
2021/09/06 01:48:23;;;;;;;10.10;8.90;;;;;;;12.74;100.00;98687.56;5054617;28;20696;-64
2021/09/06 01:50:49;;;;;;;10.77;8.63;;;;;;;12.75;100.00;98682.16;5054971;28;20212;-63
2021/09/06 01:53:16;;;;;;;10.20;9.10;;;;;;;12.78;100.00;98689.06;5055035;28;20670;-63
2021/09/06 01:55:42;;;;;;;11.57;8.63;;;;;;;12.78;100.00;98695.22;5053171;28;20218;-63
2021/09/06 01:58:08;;;;;;;12.20;9.97;;;;;;;12.76;100.00;98680.34;5054731;28;20211;-63
2021/09/06 02:00:36;;;;;;;10.07;8.40;;;;;;;12.79;100.00;98680.16;5054647;28;20215;-63
2021/09/06 02:03:03;;;;;;;10.60;8.37;;;;;;;12.76;100.00;98680.34;5054371;28;20219;-63
2021/09/06 02:05:29;;;;;;;11.43;9.17;;;;;;;12.73;100.00;98683.22;5054658;28;20577;-63
2021/09/06 02:07:56;;;;;;;12.57;9.40;;;;;;;12.70;100.00;98680.78;5054678;28;20215;-63
2021/09/06 02:10:22;;;;;;;10.63;9.37;;;;;;;12.67;100.00;98684.50;5054579;28;20211;-63
2021/09/06 02:12:49;;;;;;;9.90;8.47;;;;;;;12.63;100.00;98692.75;5054180;28;20215;-63
2021/09/06 02:15:15;;;;;;;8.77;7.83;;;;;;;12.56;100.00;98692.34;5054475;28;20583;-63
2021/09/06 02:17:43;;;;;;;10.70;8.80;;;;;;;12.51;100.00;98683.00;5054466;28;20216;-63
2021/09/06 02:20:10;;;;;;;9.13;8.13;;;;;;;12.46;100.00;98690.44;5054320;28;20232;-63
2021/09/06 02:22:36;;;;;;;9.00;8.10;;;;;;;12.40;100.00;98685.56;5052644;28;20294;-63
2021/09/06 02:25:03;;;;;;;9.87;7.73;;;;;;;12.36;100.00;98698.13;5053106;28;20246;-63
2021/09/06 02:27:30;;;;;;;8.97;7.23;;;;;;;12.31;100.00;98696.75;5054038;28;20211;-63
2021/09/06 02:29:57;;;;;;;9.10;7.47;;;;;;;12.30;100.00;98700.38;5054044;28;20204;-63
2021/09/06 02:32:23;;;;;;;8.73;7.80;;;;;;;12.30;100.00;98693.25;5054143;28;20214;-63
2021/09/06 02:34:51;;;;;;;8.90;7.53;;;;;;;12.32;100.00;98698.44;5054025;28;20216;-63
2021/09/06 02:37:17;;;;;;;10.77;8.70;;;;;;;12.33;100.00;98703.66;5053946;28;20211;-63
2021/09/06 02:39:44;;;;;;;10.27;8.63;;;;;;;12.35;100.00;98693.78;5053712;28;20211;-63
2021/09/06 02:42:10;;;;;;;9.97;8.57;;;;;;;12.32;100.00;98698.44;5053861;28;20215;-63
2021/09/06 02:44:37;;;;;;;10.57;8.93;;;;;;;12.29;100.00;98701.31;5053775;28;20232;-63
2021/09/06 02:47:04;;;;;;;11.00;8.83;;;;;;;12.32;100.00;98688.72;5053296;28;20215;-63
2021/09/06 02:49:31;;;;;;;10.03;8.60;;;;;;;12.28;100.00;98702.28;5052911;28;20209;-63
2021/09/06 02:51:58;;;;;;;11.37;9.23;;;;;;;12.31;100.00;98697.63;5053508;28;20583;-63
2021/09/06 02:54:25;;;;;;;10.67;9.20;;;;;;;12.32;100.00;98695.81;5053730;28;20226;-63
2021/09/06 02:56:51;;;;;;;11.47;9.83;;;;;;;12.32;100.00;98698.44;5053631;28;20215;-63
2021/09/06 02:59:18;;;;;;;11.77;9.50;;;;;;;12.31;100.00;98697.63;5053435;28;20211;-63
2021/09/06 03:01:44;;;;;;;13.03;9.80;;;;;;;12.35;100.00;98698.25;5053408;28;20218;-63
2021/09/06 03:04:11;;;;;;;11.17;9.73;;;;;;;12.30;100.00;98705.66;5053534;28;20235;-63
2021/09/06 03:06:37;;;;;;;11.57;10.33;;;;;;;12.26;100.00;98696.22;5053551;28;20215;-63
2021/09/06 03:09:05;;;;;;;11.40;9.90;;;;;;;12.21;100.00;98706.25;5053470;28;20215;-63
2021/09/06 03:11:32;;;;;;;11.83;9.90;;;;;;;12.19;100.00;98692.28;5053432;28;20569;-63
2021/09/06 03:13:58;;;;;;;10.77;8.97;;;;;;;12.18;100.00;98695.88;5051701;28;20222;-63
2021/09/06 03:16:25;;;;;;;11.23;9.73;;;;;;;12.20;100.00;98696.63;5053331;28;20207;-63
2021/09/06 03:18:52;;;;;;;12.57;10.47;;;;;;;12.17;100.00;98697.66;5053055;28;20302;-63
2021/09/06 03:21:18;;;;;;;12.03;9.87;;;;;;;12.15;100.00;98701.38;5053075;28;20699;-63
2021/09/06 03:23:45;;;;;;;11.10;9.93;;;;;;;12.10;100.00;98704.34;5053171;28;20239;-63
2021/09/06 03:26:14;;;;;;;12.70;10.70;;;;;;;12.04;100.00;98694.13;5053228;28;20210;-63
2021/09/06 03:28:40;;;;;;;12.90;10.57;;;;;;;11.99;100.00;98695.41;5052975;28;20215;-63
2021/09/06 03:31:07;;;;;;;11.93;10.17;;;;;;;11.96;100.00;98698.25;5053017;28;20218;-63
2021/09/06 03:33:33;;;;;;;11.57;9.83;;;;;;;11.88;100.00;98689.97;5052775;28;20704;-63
2021/09/06 03:36:00;;;;;;;10.83;9.47;;;;;;;11.83;100.00;98695.56;5052511;28;20217;-63
2021/09/06 03:38:26;;;;;;;10.17;9.07;;;;;;;11.78;100.00;98696.78;5052799;28;20213;-63
2021/09/06 03:40:53;;;;;;;10.43;8.67;;;;;;;11.73;100.00;98680.38;5051307;28;20246;-63
2021/09/06 03:43:21;;;;;;;9.47;8.27;;;;;;;11.68;100.00;98685.94;5052677;28;20214;-63
2021/09/06 03:45:47;;;;;;;8.97;7.97;;;;;;;11.63;100.00;98684.56;5052872;28;20237;-63
2021/09/06 03:48:13;;;;;;;9.37;8.37;;;;;;;11.62;100.00;98690.81;5052706;28;20217;-63
2021/09/06 03:50:40;;;;;;;10.07;9.07;;;;;;;11.56;100.00;98696.47;5052924;28;20207;-63
2021/09/06 03:53:06;;;;;;;9.10;8.20;;;;;;;11.54;100.00;98693.03;5052608;28;20313;-63
2021/09/06 03:55:33;;;;;;;9.87;8.50;;;;;;;11.50;100.00;98694.22;5052956;28;20215;-63
2021/09/06 03:57:59;;;;;;;9.23;8.23;;;;;;;11.47;100.00;98697.03;5053046;28;20216;-63
2021/09/06 04:00:27;;;;;;;10.90;9.30;;;;;;;11.39;100.00;98694.03;5052836;28;20210;-66
2021/09/06 04:02:54;;;;;;;10.33;8.73;;;;;;;11.43;100.00;98695.56;5052646;28;20215;-63
2021/09/06 04:05:20;;;;;;;10.90;8.97;;;;;;;11.38;100.00;98693.19;5052369;28;20230;-63
2021/09/06 04:07:47;;;;;;;9.93;8.37;;;;;;;11.38;100.00;98692.34;5051058;28;20214;-63
2021/09/06 04:10:13;;;;;;;12.03;9.37;;;;;;;11.35;100.00;98697.81;5052555;28;20219;-63
2021/09/06 04:12:40;;;;;;;9.40;8.40;;;;;;;11.29;100.00;98704.38;5052762;28;20255;-63
2021/09/06 04:15:09;;;;;;;9.57;8.50;;;;;;;11.29;100.00;98708.78;5052790;28;20206;-63
2021/09/06 04:17:37;;;;;;;10.30;8.80;;;;;;;11.28;100.00;98696.50;5052755;28;20218;-63
2021/09/06 04:20:05;;;;;;;9.13;8.23;;;;;;;11.27;100.00;98705.41;5052686;28;20210;-63
2021/09/06 04:22:32;;;;;;;10.77;9.20;;;;;;;11.24;100.00;98700.28;5052427;28;20585;-63
2021/09/06 04:25:00;;;;;;;10.37;8.83;;;;;;;11.18;100.00;98706.00;5052356;28;20638;-63
2021/09/06 04:27:26;;;;;;;10.47;9.47;;;;;;;11.20;100.00;98709.38;5052277;28;20762;-63
2021/09/06 04:29:53;;;;;;;10.60;9.50;;;;;;;11.20;100.00;98710.22;5052608;28;20204;-63
2021/09/06 04:32:19;;;;;;;12.20;9.87;;;;;;;11.21;100.00;98711.06;5050862;28;20209;-63
2021/09/06 04:34:47;;;;;;;11.27;10.07;;;;;;;11.21;100.00;98711.06;5052226;28;20670;-63
2021/09/06 04:37:13;;;;;;;11.23;10.03;;;;;;;11.17;100.00;98712.19;5052454;28;20221;-63
2021/09/06 04:39:40;;;;;;;11.03;9.60;;;;;;;11.20;100.00;98719.97;5052242;28;20208;-65
2021/09/06 04:42:06;;;;;;;12.40;10.00;;;;;;;11.17;100.00;98725.44;5052497;28;20573;-63
2021/09/06 04:44:33;;;;;;;11.37;10.17;;;;;;;11.19;100.00;98726.22;5052371;28;20252;-64
2021/09/06 04:47:00;;;;;;;11.53;10.30;;;;;;;11.16;100.00;98721.09;5052517;28;20270;-65
2021/09/06 04:49:26;;;;;;;13.70;10.63;;;;;;;11.20;100.00;98727.91;5055264;28;20585;-63
2021/09/06 04:51:54;;;;;;;12.27;10.27;;;;;;;11.20;100.00;98727.91;5056090;28;20222;-63
2021/09/06 04:54:21;;;;;;;11.80;10.33;;;;;;;11.17;100.00;98728.06;5056056;28;20577;-63
2021/09/06 04:56:47;;;;;;;12.87;10.60;;;;;;;11.20;100.00;98733.19;5055995;28;20299;-63
2021/09/06 04:59:16;;;;;;;12.17;10.00;;;;;;;11.29;100.00;98737.91;5054222;28;20218;-63
2021/09/06 05:01:42;;;;;;;13.47;9.97;;;;;;;11.32;100.00;98745.66;5055495;28;20217;-63
2021/09/06 05:04:09;;;;;;;14.53;10.40;;;;;;;11.31;100.00;98738.69;5055440;28;20234;-63
2021/09/06 05:06:35;;;;;;;12.00;9.60;;;;;;;11.28;100.00;98744.13;5055784;28;20208;-63
2021/09/06 05:09:03;;;;;;;10.20;9.17;;;;;;;11.26;100.00;98746.88;5055817;28;20216;-63
2021/09/06 05:11:31;;;;;;;12.53;9.80;;;;;;;11.25;100.00;98745.19;5055623;28;20204;-63
2021/09/06 05:13:57;;;;;;;10.83;9.73;;;;;;;11.32;100.00;98750.94;5055611;28;20215;-63
2021/09/06 05:16:23;;;;;;;12.53;10.47;;;;;;;11.37;100.00;98756.81;5055545;28;20213;-63
2021/09/06 05:18:50;;;;;;;12.43;11.13;;;;;;;11.45;100.00;98763.34;5055625;28;20214;-63
2021/09/06 05:21:16;;;;;;;12.60;10.27;;;;;;;11.47;100.00;98763.22;5055141;28;20699;-64
2021/09/06 05:23:43;;;;;;;13.03;10.17;;;;;;;11.53;100.00;98760.19;5055455;28;20208;-63
2021/09/06 05:26:11;;;;;;;11.93;10.63;;;;;;;11.60;100.00;98758.88;5053734;28;20589;-62
2021/09/06 05:28:37;;;;;;;12.40;10.67;;;;;;;11.63;100.00;98761.34;5055258;28;20237;-63
2021/09/06 05:31:08;;;;;;;12.13;10.60;;;;;;;11.75;100.00;98766.69;5055134;28;20242;-63
2021/09/06 05:33:34;;;;;;;11.80;10.47;;;;;;;11.84;100.00;98765.25;5055260;28;20625;-63
2021/09/06 05:36:01;;;;;;;13.83;11.50;;;;;;;11.94;100.00;98771.69;5055172;28;20215;-63
2021/09/06 05:38:27;;;;;;;15.23;11.17;;;;;;;12.05;100.00;98769.19;5054863;28;20216;-63
2021/09/06 05:40:54;;;;;;;14.33;11.43;;;;;;;12.14;100.00;98771.22;5055097;28;20238;-63
2021/09/06 05:43:21;;;;;;;11.47;10.17;;;;;;;12.22;100.00;98777.72;5054872;28;20214;-63
2021/09/06 05:45:48;;;;;;;13.47;10.90;;;;;;;12.34;100.00;98770.78;5054771;28;20237;-63
2021/09/06 05:48:14;;;;;;;14.10;11.37;;;;;;;12.44;100.00;98775.38;5055026;28;20578;-63
2021/09/06 05:50:41;;;;;;;13.57;10.60;;;;;;;12.56;100.00;98786.94;5054273;28;20238;-63
2021/09/06 05:53:07;;;;;;;13.90;10.73;;;;;;;12.62;100.00;98782.09;5054003;28;20214;-62
2021/09/06 05:55:34;;;;;;;13.77;10.97;;;;;;;12.76;100.00;98787.31;5054473;28;20215;-62
2021/09/06 05:58:00;;;;;;;17.97;11.90;;;;;;;12.87;100.00;98786.59;5054807;28;20215;-63
2021/09/06 06:00:28;;;;;;;11.27;9.50;;;;;;;12.93;100.00;98786.16;5054495;28;20212;-62
2021/09/06 06:02:55;;;;;;;14.13;10.23;;;;;;;13.05;100.00;98788.00;5054574;28;20211;-63
2021/09/06 06:05:21;;;;;;;11.90;9.73;;;;;;;13.15;100.00;98797.06;5054671;28;20259;-63
2021/09/06 06:07:47;;;;;;;12.37;10.53;;;;;;;13.24;100.00;98791.94;5054728;28;20212;-63
2021/09/06 06:10:14;;;;;;;11.77;10.10;;;;;;;13.32;100.00;98794.09;5054417;28;20212;-63
2021/09/06 06:12:40;;;;;;;12.73;10.27;;;;;;;13.40;100.00;98792.59;5054676;28;20204;-63
2021/09/06 06:15:08;;;;;;;12.47;10.07;;;;;;;13.48;100.00;98792.91;5054446;28;20215;-63
2021/09/06 06:17:36;;;;;;;10.83;9.73;;;;;;;13.57;100.00;98794.88;5052412;28;20220;-63
2021/09/06 06:20:03;;;;;;;9.83;8.83;;;;;;;13.64;100.00;98800.63;5054216;28;20299;-63
2021/09/06 06:22:30;;;;;;;10.93;9.37;;;;;;;13.72;100.00;98799.13;5050825;28;20211;-63
2021/09/06 06:24:56;;;;;;;10.70;9.60;;;;;;;13.84;100.00;98802.72;5053316;28;20705;-63
2021/09/06 06:27:23;;;;;;;13.33;9.93;;;;;;;13.87;100.00;98798.00;5054040;28;20208;-62
2021/09/06 06:29:49;;;;;;;11.07;9.23;;;;;;;13.99;100.00;98796.31;5053893;28;20208;-63
2021/09/06 06:32:16;;;;;;;10.90;9.30;;;;;;;14.07;100.00;98793.94;5054141;28;20215;-63
2021/09/06 06:34:44;;;;;;;11.63;9.40;;;;;;;14.18;100.00;98809.94;5053995;28;20208;-63
2021/09/06 06:37:10;;;;;;;11.13;9.77;;;;;;;14.25;100.00;98811.22;5054106;28;20216;-63
2021/09/06 06:39:37;;;;;;;12.17;9.83;;;;;;;14.32;100.00;98804.50;5054045;28;20208;-63
2021/09/06 06:42:04;;;;;;;10.70;9.40;;;;;;;14.42;100.00;98802.88;5054085;28;20694;-63
2021/09/06 06:44:30;;;;;;;12.67;9.87;;;;;;;14.57;100.00;98809.69;5051820;28;20208;-63
2021/09/06 06:46:57;;;;;;;13.77;9.87;;;;;;;14.69;100.00;98811.44;5053774;28;20577;-63
2021/09/06 06:49:23;;;;;;;10.90;9.10;;;;;;;14.82;100.00;98821.06;5053525;28;20717;-63
2021/09/06 06:51:51;;;;;;;10.10;9.03;;;;;;;14.91;100.00;98815.03;5053419;28;20683;-63
2021/09/06 06:54:17;;;;;;;10.10;9.00;;;;;;;15.06;100.00;98818.34;5053804;28;20251;-63
2021/09/06 06:56:44;;;;;;;9.57;8.23;;;;;;;15.18;100.00;98823.59;5053746;28;20208;-63
2021/09/06 06:59:10;;;;;;;11.73;9.03;;;;;;;15.32;100.00;98819.84;5053617;28;20208;-63
2021/09/06 07:01:37;;;;;;;9.63;8.47;;;;;;;15.46;100.00;98820.50;5053288;28;20697;-63
2021/09/06 07:04:04;;;;;;;10.27;8.27;;;;;;;15.60;100.00;98817.63;5053369;28;20703;-63
2021/09/06 07:06:30;;;;;;;11.27;8.73;;;;;;;15.76;100.00;98819.94;5053374;28;20321;-63
2021/09/06 07:08:58;;;;;;;10.47;9.07;;;;;;;15.89;100.00;98821.47;5053082;28;20670;-63
2021/09/06 07:11:25;;;;;;;9.50;8.50;;;;;;;16.02;100.00;98816.84;5051238;28;20219;-63
2021/09/06 07:13:52;;;;;;;10.90;8.67;;;;;;;16.16;100.00;98814.78;5053037;28;20212;-63
2021/09/06 07:16:18;;;;;;;11.10;8.57;;;;;;;16.27;100.00;98806.75;5053256;28;20612;-63
2021/09/06 07:18:45;;;;;;;10.67;7.77;;;;;;;16.40;100.00;98818.16;5053261;28;20212;-64
2021/09/06 07:21:11;;;;;;;9.50;8.33;;;;;;;16.55;100.00;98821.38;5053057;28;20303;-64
2021/09/06 07:23:38;;;;;;;9.53;8.50;;;;;;;16.63;100.00;98822.44;5052922;28;20703;-64
2021/09/06 07:26:06;;;;;;;9.83;8.53;;;;;;;16.73;100.00;98828.72;5052916;28;20242;-63
2021/09/06 07:28:32;;;;;;;10.73;9.47;;;;;;;16.85;100.00;98830.38;5053169;28;20211;-64
2021/09/06 07:30:59;;;;;;;10.87;8.73;;;;;;;16.98;100.00;98825.69;5052824;28;20227;-64
2021/09/06 07:33:25;;;;;;;10.87;8.37;;;;;;;17.06;99.88;98828.56;5052612;28;20579;-64
2021/09/06 07:35:52;;;;;;;10.07;8.37;;;;;;;17.21;99.87;98823.75;5050496;28;20212;-64
2021/09/06 07:38:18;;;;;;;9.10;8.20;;;;;;;17.31;98.32;98830.84;5051846;28;20704;-64
2021/09/06 07:40:45;;;;;;;10.00;8.77;;;;;;;17.42;96.30;98825.47;5052554;28;20236;-64
2021/09/06 07:43:13;;;;;;;9.73;8.63;;;;;;;17.52;95.76;98828.19;5052828;28;20215;-64
2021/09/06 07:45:39;;;;;;;10.63;8.23;;;;;;;17.61;94.82;98825.56;5052897;28;20279;-64
2021/09/06 07:48:06;;;;;;;11.10;8.87;;;;;;;17.72;93.65;98827.31;5053017;28;20227;-64
2021/09/06 07:50:33;;;;;;;10.30;8.70;;;;;;;17.83;93.13;98830.75;5053080;28;20204;-64
2021/09/06 07:52:59;;;;;;;9.47;7.90;;;;;;;17.94;92.11;98833.34;5053021;28;20211;-64
2021/09/06 07:55:25;;;;;;;8.63;7.57;;;;;;;18.04;91.13;98847.59;5052625;28;20223;-64
2021/09/06 07:57:52;;;;;;;9.93;7.90;;;;;;;18.15;89.51;98839.47;5052964;28;20212;-64
2021/09/06 08:00:20;;;;;;;9.43;7.87;;;;;;;18.32;89.72;98837.97;5052926;28;20204;-64
2021/09/06 08:02:49;;;;;;;9.07;7.60;;;;;;;18.38;87.39;98851.69;5051281;28;20219;-64
2021/09/06 08:05:19;;;;;;;9.23;7.10;;;;;;;18.49;86.27;98835.50;5052817;28;20275;-64
2021/09/06 08:07:45;;;;;;;7.07;6.30;;;;;;;18.59;86.30;98849.75;5052871;28;20208;-64
2021/09/06 08:10:12;;;;;;;7.87;6.67;;;;;;;18.67;85.34;98857.94;5052901;28;20212;-64
2021/09/06 08:12:38;;;;;;;7.20;6.33;;;;;;;18.78;85.46;98856.97;5052689;28;20210;-64
2021/09/06 08:15:06;;;;;;;8.07;7.10;;;;;;;18.93;85.65;98859.09;5052696;28;20215;-64
2021/09/06 08:17:34;;;;;;;8.77;6.90;;;;;;;19.02;84.25;98860.91;5052467;28;20216;-64
2021/09/06 08:20:01;;;;;;;7.23;6.53;;;;;;;19.11;82.61;98864.56;5052814;28;20639;-64
2021/09/06 08:22:28;;;;;;;7.67;6.30;;;;;;;19.16;82.36;98868.53;5052375;28;20212;-64
2021/09/06 08:24:54;;;;;;;8.07;7.27;;;;;;;19.27;82.67;98875.63;5055958;28;20208;-64
2021/09/06 08:27:22;;;;;;;9.60;6.60;;;;;;;19.41;80.72;98873.34;5056493;28;20208;-64
2021/09/06 08:29:48;;;;;;;7.27;6.57;;;;;;;19.47;80.89;98875.47;5054674;28;20204;-64
2021/09/06 08:32:15;;;;;;;7.27;6.43;;;;;;;19.55;80.18;98875.56;5056250;28;20643;-64
2021/09/06 08:34:43;;;;;;;7.40;6.60;;;;;;;19.63;78.14;98881.06;5056362;28;20209;-64
2021/09/06 08:37:09;;;;;;;7.30;6.50;;;;;;;19.68;79.13;98884.16;5056350;28;20219;-64
2021/09/06 08:39:37;;;;;;;7.70;6.70;;;;;;;19.85;78.99;98880.72;5056082;28;20269;-64
2021/09/06 08:42:04;;;;;;;6.93;6.23;;;;;;;19.92;77.11;98881.84;5056428;28;20747;-64
2021/09/06 08:44:31;;;;;;;6.70;6.03;;;;;;;19.99;77.42;98880.25;5055911;28;20212;-64
2021/09/06 08:46:58;;;;;;;7.17;6.40;;;;;;;20.17;76.37;98878.53;5056098;28;20232;-64
2021/09/06 08:49:25;;;;;;;7.33;6.07;;;;;;;20.33;74.42;98889.50;5056073;28;20223;-64
2021/09/06 08:51:53;;;;;;;7.90;6.70;;;;;;;20.44;73.68;98883.94;5055783;28;20684;-64
2021/09/06 08:54:19;;;;;;;7.77;6.47;;;;;;;20.58;74.24;98893.28;5054318;28;20208;-64
2021/09/06 08:56:48;;;;;;;7.03;6.43;;;;;;;20.68;74.86;98888.72;5056032;28;20241;-64
2021/09/06 08:59:15;;;;;;;7.93;6.27;;;;;;;20.71;74.57;98883.91;5055640;28;20251;-65
2021/09/06 09:01:44;;;;;;;7.03;5.93;;;;;;;20.84;72.95;98889.75;5055947;28;20211;-65
2021/09/06 09:04:15;;;;;;;7.13;5.83;;;;;;;20.96;72.44;98887.75;5055795;28;20294;-64
2021/09/06 09:06:41;;;;;;;7.10;6.33;;;;;;;21.12;72.76;98894.13;5055709;28;20234;-64
2021/09/06 09:09:09;;;;;;;6.90;6.20;;;;;;;21.24;71.78;98894.72;5055721;28;20219;-64
2021/09/06 09:11:36;;;;;;;9.73;7.07;;;;;;;21.35;71.58;98895.34;5055769;28;20215;-64
2021/09/06 09:14:11;;;;;;;7.40;6.47;;;;;;;21.45;71.59;98888.00;5055629;28;20208;-64
2021/09/06 09:16:37;;;;;;;8.70;7.23;;;;;;;21.50;71.55;98893.78;5055563;28;20212;-64
2021/09/06 09:19:06;;;;;;;7.47;6.67;;;;;;;21.62;68.76;98889.84;5055578;28;20211;-64
2021/09/06 09:21:33;;;;;;;7.20;6.27;;;;;;;21.64;68.42;98892.38;5053903;28;20302;-64
2021/09/06 09:24:01;;;;;;;7.43;6.60;;;;;;;21.76;68.16;98888.47;5055317;28;20278;-64
2021/09/06 09:26:29;;;;;;;7.83;6.77;;;;;;;21.85;66.88;98885.66;5055123;28;20245;-65
2021/09/06 09:28:57;;;;;;;8.43;6.60;;;;;;;21.91;67.92;98893.13;5055204;28;20222;-64
2021/09/06 09:31:23;;;;;;;8.97;6.30;;;;;;;21.97;67.08;98891.63;5054918;28;20213;-65
2021/09/06 09:33:52;;;;;;;9.20;7.37;;;;;;;22.07;66.20;98889.66;5054619;28;20208;-64
2021/09/06 09:36:28;;;;;;;8.13;7.00;;;;;;;22.17;66.37;98888.53;5055174;28;20212;-64
2021/09/06 09:39:05;;;;;;;7.50;6.80;;;;;;;22.23;64.29;98887.91;5054939;28;20216;-64
2021/09/06 09:41:33;;;;;;;8.33;6.83;;;;;;;22.27;65.46;98893.81;5055331;28;20234;-64
2021/09/06 09:44:06;;;;;;;8.53;7.10;;;;;;;22.41;61.23;98891.38;5054741;28;20219;-64
2021/09/06 09:46:33;;;;;;;8.03;7.23;;;;;;;22.49;62.90;98886.03;5052961;28;20240;-64
2021/09/06 09:49:09;;;;;;;10.33;7.47;;;;;;;22.61;60.06;98884.72;5054671;28;20685;-64
2021/09/06 09:51:36;;;;;;;7.67;6.73;;;;;;;22.64;59.81;98880.88;5054591;28;20211;-64
2021/09/06 09:54:03;;;;;;;7.60;6.53;;;;;;;22.79;58.86;98880.06;5054964;28;20205;-64
2021/09/06 09:56:31;;;;;;;7.47;6.63;;;;;;;22.75;58.36;98878.69;5054744;28;20246;-64
2021/09/06 09:59:00;;;;;;;6.40;5.80;;;;;;;22.85;56.76;98879.41;5054765;28;20223;-64
2021/09/06 10:01:29;;;;;;;6.23;5.63;;;;;;;22.95;58.12;98882.81;5054448;28;20266;-64
2021/09/06 10:03:59;;;;;;;7.13;6.27;;;;;;;23.13;57.44;98883.53;5054600;28;20212;-64
2021/09/06 10:06:26;;;;;;;7.07;6.37;;;;;;;23.27;54.22;98879.34;5054509;28;20246;-64
2021/09/06 10:08:53;;;;;;;6.70;5.70;;;;;;;23.32;52.50;98877.84;5054548;28;20215;-63
2021/09/06 10:11:19;;;;;;;6.30;5.70;;;;;;;23.50;52.28;98878.53;5054394;28;20211;-63
2021/09/06 10:13:46;;;;;;;6.40;5.80;;;;;;;23.60;52.27;98876.47;5052631;28;20208;-64
2021/09/06 10:16:14;;;;;;;6.20;5.60;;;;;;;23.64;53.13;98868.91;5054316;28;20583;-64
2021/09/06 10:18:42;;;;;;;6.33;5.70;;;;;;;23.75;51.82;98864.00;5054240;28;20208;-64
2021/09/06 10:21:13;;;;;;;6.33;5.73;;;;;;;23.83;52.86;98863.97;5054138;28;20207;-64
2021/09/06 10:23:44;;;;;;;6.60;5.90;;;;;;;23.90;52.60;98861.47;5054163;28;20204;-64
2021/09/06 10:26:11;;;;;;;6.90;5.90;;;;;;;23.96;51.35;98852.69;5053760;28;20721;-64
2021/09/06 10:28:39;;;;;;;6.00;5.40;;;;;;;24.12;51.03;98853.50;5053796;28;20219;-64
2021/09/06 10:31:05;;;;;;;7.27;6.57;;;;;;;24.20;53.08;98858.84;5053920;28;20247;-63
2021/09/06 10:33:35;;;;;;;6.67;5.43;;;;;;;24.23;52.73;98847.72;5053656;28;20215;-64
2021/09/06 10:36:07;;;;;;;8.03;6.30;;;;;;;24.29;51.11;98847.00;5053805;28;20212;-64
2021/09/06 10:38:39;;;;;;;7.33;6.33;;;;;;;24.38;49.95;98854.06;5052254;28;20227;-64
2021/09/06 10:41:14;;;;;;;7.37;6.50;;;;;;;24.39;51.83;98841.41;5053841;28;20240;-64
2021/09/06 10:43:48;;;;;;;6.77;6.17;;;;;;;24.41;53.46;98842.91;5053981;28;20203;-64
2021/09/06 10:46:16;;;;;;;6.60;5.90;;;;;;;24.53;54.71;98837.94;5052732;28;20254;-64
2021/09/06 10:48:45;;;;;;;8.63;6.07;;;;;;;24.56;52.93;98843.03;5053324;28;20227;-64
2021/09/06 10:51:11;;;;;;;6.90;6.20;;;;;;;24.60;53.33;98829.00;5053735;28;20556;-64
2021/09/06 10:53:38;;;;;;;6.47;5.87;;;;;;;24.55;53.37;98842.16;5053479;28;20212;-64
2021/09/06 10:56:07;;;;;;;6.90;6.17;;;;;;;24.68;52.62;98841.63;5036232;28;20220;-64
2021/09/06 10:58:33;;;;;;;6.67;6.07;;;;;;;24.76;52.68;98833.47;5036287;28;20243;-64
2021/09/06 11:01:04;;;;;;;6.60;6.00;;;;;;;24.75;51.54;98832.63;5044948;28;20221;-64
2021/09/06 11:03:35;;;;;;;7.30;6.40;;;;;;;24.77;51.99;98836.00;5044568;28;20680;-64
2021/09/06 11:06:03;;;;;;;6.93;6.23;;;;;;;24.91;51.33;98832.53;5034637;28;20248;-64
2021/09/06 11:08:31;;;;;;;6.33;5.50;;;;;;;24.92;50.63;98828.78;5047792;28;20220;-64
2021/09/06 11:11:01;;;;;;;7.00;6.30;;;;;;;25.06;48.92;98830.72;5041036;28;21333;-64
2021/09/06 11:13:33;;;;;;;7.37;6.20;;;;;;;25.09;48.78;98832.22;5039433;28;20221;-64
2021/09/06 11:16:00;;;;;;;6.43;5.83;;;;;;;25.10;48.22;98821.22;5048616;28;20216;-64
2021/09/06 11:18:31;;;;;;;6.07;5.47;;;;;;;25.09;47.52;98818.69;5037863;28;20223;-64
2021/09/06 11:20:57;;;;;;;6.60;6.00;;;;;;;25.10;46.78;98821.22;5041813;28;20220;-64
2021/09/06 11:23:32;;;;;;;7.63;5.70;;;;;;;25.10;47.25;98832.06;5046229;28;20208;-64